Delta Virtual Airport Information Service

Shanghai Pudong International Airport

ICAO: ZSPD Country: China
Latitude: 31.1434 Longitude: 121.805
Latest Arrival : DAC543 (RJAA-ZSPD) Latest Departure : ETD867 (ZSPD-OMAA)


WX CaptureLIVE
Data provided by noaa.gov | Fetched at 15:07:36

METAR : ZSPD 291930Z 32003MPS CAVOK 21/17 Q1010 NOSIG

TAF : ZSPD 291505Z 2918/3018 03004MPS 6000 BKN026 TX26/3006Z TN20/2920Z


Runway Data for ZSPD
Data provided by openaviationdata.com

Runway ID Mag Var Hdg Length Elevation Surface ILS Freq ILS Id ILS Slope
16 -5 167° 12467 ft 10 ft Concrete -- -- --
17 -5 167° 13150 ft 10 ft Concrete 110.7 IPD 3
34 -5 347° 12467 ft 10 ft Concrete -- -- --
35 -5 347° 13150 ft 10 ft Concrete 111.9 INN 3

Shanghai Pudong International Airport, China
Use only for reference purposes



Not for navigational purposes.